Time;durP1;ratioP1;P1;durP2;ratioP2;P2;SDS_P1;SDS_P2;PMS_P1;PMS_P2;Temp;Humidity;BMP_temperature;BMP_pressure;BME280_temperature;BME280_humidity;BME280_pressure;Samples;Min_cycle;Max_cycle;Signal;HPM_P1;HPM_P2
2022/12/09 00:02:14;;;;;;;39.20;22.83;;;4.80;99.90;;;;;;4997296;28;20038;-88
2022/12/09 00:04:44;;;;;;;39.20;24.23;;;4.80;99.90;;;;;;5015222;28;20037;-87
2022/12/09 00:07:14;;;;;;;38.45;23.40;;;4.80;99.90;;;;;;4997625;28;20068;-88
2022/12/09 00:09:42;;;;;;;40.25;25.10;;;4.80;99.90;;;;;;4998019;28;20068;-88
2022/12/09 00:12:11;;;;;;;43.83;24.65;;;4.80;99.90;;;;;;4982103;28;20570;-88
2022/12/09 00:14:42;;;;;;;41.38;24.33;;;4.80;99.90;;;;;;4997843;28;20021;-88
2022/12/09 00:17:29;;;;;;;39.58;23.08;;;4.80;99.90;;;;;;4997341;28;20462;-87
2022/12/09 00:19:54;;;;;;;40.50;23.42;;;4.80;99.90;;;;;;5014539;28;20034;-88
2022/12/09 00:22:20;;;;;;;44.90;25.75;;;4.80;99.90;;;;;;4997221;28;20048;-88
2022/12/09 00:24:51;;;;;;;38.78;22.50;;;4.80;99.90;;;;;;4997318;28;20032;-88
2022/12/09 00:27:17;;;;;;;40.95;24.45;;;4.80;99.90;;;;;;4997331;28;20072;-88
2022/12/09 00:29:47;;;;;;;41.55;23.92;;;4.80;99.90;;;;;;4997153;28;20111;-88
2022/12/09 00:32:13;;;;;;;38.65;23.13;;;4.80;99.90;;;;;;4997679;28;20037;-88
2022/12/09 00:34:44;;;;;;;44.22;25.70;;;4.80;99.90;;;;;;5014239;28;20022;-88
2022/12/09 00:37:19;;;;;;;42.08;24.67;;;4.80;99.90;;;;;;4981265;28;20026;-88
2022/12/09 00:39:48;;;;;;;38.80;23.30;;;4.80;99.90;;;;;;4982259;28;20045;-88
2022/12/09 00:42:16;;;;;;;40.75;23.77;;;4.80;99.90;;;;;;4996574;28;20018;-88
2022/12/09 00:44:45;;;;;;;40.85;24.33;;;4.80;99.90;;;;;;4997061;28;20060;-88
2022/12/09 00:47:20;;;;;;;38.80;23.73;;;4.80;99.90;;;;;;4997089;28;20042;-87
2022/12/09 00:49:51;;;;;;;40.88;24.63;;;4.80;99.90;;;;;;4981529;28;20030;-88
2022/12/09 00:52:24;;;;;;;40.67;24.17;;;4.80;99.90;;;;;;5013464;28;20466;-88
2022/12/09 00:54:55;;;;;;;41.25;24.15;;;4.80;99.90;;;;;;4980691;28;20026;-88
2022/12/09 00:57:29;;;;;;;41.80;24.08;;;4.90;99.90;;;;;;4981098;28;20949;-87
2022/12/09 01:00:07;;;;;;;39.72;23.70;;;4.80;99.90;;;;;;4996847;28;20037;-88
2022/12/09 01:02:44;;;;;;;;;;;;;;;;;;;;;
2022/12/09 01:05:13;;;;;;;43.80;24.65;;;4.90;99.90;;;;;;5014049;28;20033;-88
2022/12/09 01:07:39;;;;;;;43.38;26.60;;;4.80;99.90;;;;;;4997406;28;20029;-87
2022/12/09 01:10:08;;;;;;;43.83;26.88;;;4.90;99.90;;;;;;4996869;28;20022;-88
2022/12/09 01:12:44;;;;;;;;;;;;;;;;;;;;;
2022/12/09 01:15:13;;;;;;;46.55;27.00;;;4.80;99.90;;;;;;5014589;28;20020;-88
2022/12/09 01:18:01;;;;;;;46.30;27.67;;;4.80;99.90;;;;;;4996688;28;20030;-87
2022/12/09 01:20:37;;;;;;;46.63;25.65;;;4.80;99.90;;;;;;4996675;28;20030;-88
2022/12/09 01:23:20;;;;;;;43.30;25.50;;;4.80;99.90;;;;;;4996588;28;20032;-87
2022/12/09 01:25:49;;;;;;;42.47;24.80;;;4.80;99.90;;;;;;4996502;28;20116;-88
2022/12/09 01:28:18;;;;;;;38.75;22.85;;;4.80;99.90;;;;;;4996617;28;20370;-88
2022/12/09 01:30:56;;;;;;;50.63;26.85;;;4.70;99.90;;;;;;4997009;28;20034;-87
2022/12/09 01:33:34;;;;;;;48.50;29.02;;;4.70;99.90;;;;;;4996963;28;20440;-87
2022/12/09 01:36:13;;;;;;;44.95;27.17;;;4.70;99.90;;;;;;4996612;28;20073;-88
2022/12/09 01:38:48;;;;;;;;;;;;;;;;;;;;;
2022/12/09 01:41:19;;;;;;;46.83;26.98;;;4.70;99.90;;;;;;5014248;28;20040;-88
2022/12/09 01:43:55;;;;;;;;;;;;;;;;;;;;;
2022/12/09 01:46:23;;;;;;;45.03;25.90;;;4.70;99.90;;;;;;5016767;28;20022;-88
2022/12/09 01:49:08;;;;;;;46.05;27.63;;;4.70;99.90;;;;;;5002791;28;20022;-88
2022/12/09 01:51:59;;;;;;;49.63;29.45;;;4.70;99.90;;;;;;5016319;28;20129;-88
2022/12/09 01:54:36;;;;;;;50.55;29.88;;;4.70;99.90;;;;;;5001117;28;20038;-87
2022/12/09 01:57:05;;;;;;;47.60;28.98;;;4.70;99.90;;;;;;5006942;28;20029;-87
2022/12/09 01:59:35;;;;;;;50.10;29.30;;;4.70;99.90;;;;;;5001299;28;20084;-87
2022/12/09 02:02:11;;;;;;;48.35;28.05;;;4.70;99.90;;;;;;5002620;28;20077;-88
2022/12/09 02:04:44;;;;;;;47.67;30.45;;;4.70;99.90;;;;;;4997360;28;20050;-87
2022/12/09 02:07:12;;;;;;;46.75;28.52;;;4.80;99.90;;;;;;4997183;28;20050;-91
2022/12/09 02:09:46;;;;;;;47.65;29.58;;;4.80;99.90;;;;;;4980654;28;20026;-88
2022/12/09 02:12:37;;;;;;;45.72;26.92;;;4.80;99.90;;;;;;4997091;28;20093;-88
2022/12/09 02:15:33;;;;;;;45.45;26.98;;;4.80;99.90;;;;;;4977668;28;20085;-88
2022/12/09 02:18:15;;;;;;;46.22;25.95;;;4.70;99.90;;;;;;4997278;28;20022;-88
2022/12/09 02:20:54;;;;;;;41.95;24.35;;;4.70;99.90;;;;;;4997165;28;20031;-87
2022/12/09 02:23:34;;;;;;;40.13;24.40;;;4.70;99.90;;;;;;4997180;28;20019;-87
2022/12/09 02:26:25;;;;;;;39.28;22.95;;;4.70;99.90;;;;;;4997022;28;20030;-88
2022/12/09 02:29:24;;;;;;;43.00;23.80;;;4.70;99.90;;;;;;4996847;28;20026;-88
2022/12/09 02:31:59;;;;;;;41.00;24.75;;;4.70;99.90;;;;;;4996289;28;20045;-87
2022/12/09 02:34:32;;;;;;;43.53;24.27;;;4.70;99.90;;;;;;4996284;28;20100;-88
2022/12/09 02:37:09;;;;;;;42.72;24.95;;;4.70;99.90;;;;;;4996469;28;20022;-87
2022/12/09 02:40:11;;;;;;;;;;;;;;;;;;;;;
2022/12/09 02:42:55;;;;;;;41.80;23.92;;;4.70;99.90;;;;;;4997199;28;20034;-87
2022/12/09 02:45:40;;;;;;;;;;;;;;;;;;;;;
2022/12/09 02:48:10;;;;;;;41.92;23.88;;;4.70;99.90;;;;;;4997619;28;20026;-87
2022/12/09 02:50:49;;;;;;;;;;;;;;;;;;;;;
2022/12/09 02:53:25;;;;;;;43.72;23.85;;;4.70;99.90;;;;;;4996903;28;20040;-90
2022/12/09 02:55:55;;;;;;;45.35;24.35;;;4.70;99.90;;;;;;4995900;28;20026;-87
2022/12/09 02:58:32;;;;;;;42.05;24.27;;;4.70;99.90;;;;;;4995803;28;20026;-88
2022/12/09 03:00:58;;;;;;;44.85;24.77;;;4.70;99.90;;;;;;4996014;28;20489;-88
2022/12/09 03:03:27;;;;;;;43.50;24.58;;;4.60;99.90;;;;;;4979034;28;20065;-87
2022/12/09 03:06:08;;;;;;;45.95;24.52;;;4.70;99.90;;;;;;4995684;28;20089;-88
2022/12/09 03:08:51;;;;;;;44.10;25.00;;;4.70;99.90;;;;;;4995571;28;20081;-88
2022/12/09 03:11:20;;;;;;;46.20;24.27;;;4.70;99.90;;;;;;4995274;28;20046;-91
2022/12/09 03:14:11;;;;;;;43.33;24.92;;;4.60;99.90;;;;;;4995520;28;20101;-88
2022/12/09 03:16:52;;;;;;;45.88;24.77;;;4.70;99.90;;;;;;4995257;28;20027;-88
2022/12/09 03:19:48;;;;;;;42.73;24.90;;;4.60;99.90;;;;;;4995395;28;20035;-87
2022/12/09 03:22:18;;;;;;;41.60;23.88;;;4.60;99.90;;;;;;5011460;28;20022;-88
2022/12/09 03:24:53;;;;;;;47.03;25.25;;;4.60;99.90;;;;;;4995482;28;20031;-88
2022/12/09 03:27:27;;;;;;;44.10;24.73;;;4.60;99.90;;;;;;4995126;28;20037;-88
2022/12/09 03:29:54;;;;;;;43.53;23.17;;;4.60;99.90;;;;;;4995333;28;20088;-88
2022/12/09 03:32:25;;;;;;;40.60;23.20;;;4.60;99.90;;;;;;4994908;28;20038;-92
2022/12/09 03:34:56;;;;;;;40.85;23.55;;;4.60;99.90;;;;;;4996253;28;20030;-88
2022/12/09 03:37:22;;;;;;;39.72;23.73;;;4.60;99.90;;;;;;4995073;28;20022;-89
2022/12/09 03:39:56;;;;;;;39.80;23.52;;;4.60;99.90;;;;;;4964022;28;20026;-87
2022/12/09 03:42:28;;;;;;;42.83;23.27;;;4.50;99.90;;;;;;5000352;28;20032;-85
2022/12/09 03:45:09;;;;;;;42.03;23.05;;;4.60;99.90;;;;;;4996139;28;20027;-88
2022/12/09 03:47:37;;;;;;;41.20;22.63;;;4.50;99.90;;;;;;4996165;28;20026;-88
2022/12/09 03:50:05;;;;;;;38.25;22.02;;;4.50;99.90;;;;;;4994614;28;20030;-88
2022/12/09 03:52:38;;;;;;;35.80;19.23;;;4.50;99.90;;;;;;4962217;28;20034;-86
2022/12/09 03:55:25;;;;;;;35.42;18.70;;;4.50;99.90;;;;;;4994705;28;20069;-86
2022/12/09 03:58:05;;;;;;;33.13;20.20;;;4.40;99.90;;;;;;4994985;28;20031;-87
2022/12/09 04:00:36;;;;;;;36.78;20.58;;;4.40;99.90;;;;;;4994702;28;20026;-86
2022/12/09 04:03:02;;;;;;;32.15;19.27;;;4.40;99.90;;;;;;4996202;28;20113;-86
2022/12/09 04:05:28;;;;;;;40.17;20.02;;;4.40;99.90;;;;;;4997561;28;20026;-87
2022/12/09 04:07:54;;;;;;;35.30;18.83;;;4.50;99.90;;;;;;4981579;28;20145;-86
2022/12/09 04:10:19;;;;;;;34.53;19.52;;;4.50;99.90;;;;;;4965115;28;20038;-86
2022/12/09 04:12:45;;;;;;;33.90;18.17;;;4.50;99.90;;;;;;4998277;28;20045;-87
2022/12/09 04:15:11;;;;;;;34.47;19.55;;;4.40;99.90;;;;;;4965577;28;20037;-87
2022/12/09 04:17:37;;;;;;;32.38;18.63;;;4.50;99.90;;;;;;4996999;28;20029;-86
2022/12/09 04:20:03;;;;;;;31.58;17.73;;;4.40;99.90;;;;;;4997798;28;20033;-86
2022/12/09 04:22:28;;;;;;;31.40;17.88;;;4.50;99.90;;;;;;4999990;28;20026;-87
2022/12/09 04:24:54;;;;;;;32.60;18.58;;;4.50;99.90;;;;;;4988932;28;20017;-87
2022/12/09 04:27:20;;;;;;;32.58;18.27;;;4.50;99.90;;;;;;5003149;28;20018;-88
2022/12/09 04:29:51;;;;;;;32.35;18.75;;;4.50;99.90;;;;;;4990394;28;20030;-87
2022/12/09 04:32:30;;;;;;;;;;;;;;;;;;;;;
2022/12/09 04:34:56;;;;;;;33.83;19.48;;;4.50;99.90;;;;;;4998890;28;20040;-87
2022/12/09 04:37:23;;;;;;;30.17;18.33;;;4.50;99.90;;;;;;4997099;28;20532;-87
2022/12/09 04:40:00;;;;;;;31.40;17.88;;;4.40;99.90;;;;;;4996904;28;20045;-87
2022/12/09 04:42:32;;;;;;;33.08;19.33;;;4.50;99.90;;;;;;4981894;28;20026;-87
2022/12/09 04:44:58;;;;;;;31.52;17.52;;;4.40;99.90;;;;;;4997044;28;20437;-87
2022/12/09 04:47:41;;;;;;;31.55;17.48;;;4.40;99.90;;;;;;5014594;28;20026;-87
2022/12/09 04:50:10;;;;;;;33.53;18.00;;;4.40;99.90;;;;;;4997154;28;20030;-87
2022/12/09 04:52:41;;;;;;;31.60;19.20;;;4.40;99.90;;;;;;4997093;28;20094;-87
2022/12/09 04:55:14;;;;;;;32.05;17.63;;;4.40;99.90;;;;;;4996752;28;20045;-87
2022/12/09 04:57:43;;;;;;;29.90;17.33;;;4.30;99.90;;;;;;4997021;28;20113;-87
2022/12/09 05:00:12;;;;;;;28.70;17.33;;;4.30;99.90;;;;;;4996993;28;20053;-87
2022/12/09 05:02:40;;;;;;;33.33;17.98;;;4.30;99.90;;;;;;4996875;28;20080;-87
2022/12/09 05:05:15;;;;;;;30.85;17.15;;;4.30;99.90;;;;;;4996207;28;20042;-88
2022/12/09 05:07:44;;;;;;;29.20;17.48;;;4.30;99.90;;;;;;4996991;28;20034;-88
2022/12/09 05:10:10;;;;;;;31.55;17.25;;;4.30;99.90;;;;;;5014613;28;20026;-87
2022/12/09 05:12:40;;;;;;;30.25;17.10;;;4.30;99.90;;;;;;4996965;28;20030;-87
2022/12/09 05:15:07;;;;;;;31.20;17.42;;;4.30;99.90;;;;;;5013933;28;20037;-87
2022/12/09 05:17:37;;;;;;;32.47;18.13;;;4.30;99.90;;;;;;4996707;28;20120;-87
2022/12/09 05:20:08;;;;;;;31.05;17.30;;;4.30;99.90;;;;;;4996993;28;20026;-87
2022/12/09 05:22:37;;;;;;;34.97;18.17;;;4.40;99.90;;;;;;4996466;28;20021;-91
2022/12/09 05:25:11;;;;;;;28.58;16.85;;;4.40;99.90;;;;;;4996719;28;20033;-87
2022/12/09 05:27:40;;;;;;;30.95;16.63;;;4.40;99.90;;;;;;4997519;28;20026;-86
2022/12/09 05:30:06;;;;;;;32.20;18.30;;;4.40;99.90;;;;;;4999794;28;20030;-87
2022/12/09 05:35:26;;;;;;;29.40;16.98;;;4.40;99.90;;;;;;5019220;28;20470;-88
2022/12/09 05:37:56;;;;;;;32.92;18.38;;;4.40;99.90;;;;;;5001525;28;20116;-86
2022/12/09 05:40:27;;;;;;;30.05;17.98;;;4.40;99.90;;;;;;5001158;28;20032;-87
2022/12/09 05:42:55;;;;;;;30.58;17.60;;;4.50;99.90;;;;;;5013458;28;20061;-89
2022/12/09 05:45:24;;;;;;;34.38;18.13;;;4.40;99.90;;;;;;4998761;28;20030;-85
2022/12/09 05:47:54;;;;;;;31.17;17.55;;;4.50;99.90;;;;;;4998165;28;20022;-86
2022/12/09 05:50:20;;;;;;;35.08;17.38;;;4.50;99.90;;;;;;5000465;28;20026;-86
2022/12/09 05:52:48;;;;;;;30.85;17.05;;;4.40;99.90;;;;;;5000645;28;20038;-86
2022/12/09 05:55:19;;;;;;;30.95;16.98;;;4.40;99.90;;;;;;5017104;28;20026;-85
2022/12/09 05:57:48;;;;;;;29.83;17.70;;;4.40;99.90;;;;;;5011950;28;20081;-87
2022/12/09 06:00:14;;;;;;;31.70;17.75;;;4.40;99.90;;;;;;5017863;28;20025;-87
2022/12/09 06:02:55;;;;;;;;;;;;;;;;;;;;;
2022/12/09 06:05:23;;;;;;;;;;;4.40;99.90;;;;;;5021506;28;20133;-87
2022/12/09 06:07:51;;;;;;;33.70;18.60;;;4.40;99.90;;;;;;5018767;28;19909;-85
2022/12/09 06:10:17;;;;;;;35.33;18.33;;;4.30;99.90;;;;;;4999173;28;20029;-87
2022/12/09 06:12:46;;;;;;;36.05;18.38;;;4.30;99.90;;;;;;5015665;28;20040;-86
2022/12/09 06:15:14;;;;;;;33.00;17.95;;;4.30;99.90;;;;;;5014627;28;20018;-86
2022/12/09 06:17:42;;;;;;;31.50;17.73;;;4.30;99.90;;;;;;4999281;28;20029;-86
2022/12/09 06:20:08;;;;;;;33.53;18.77;;;4.30;99.90;;;;;;4999699;28;20478;-87
2022/12/09 06:22:39;;;;;;;33.92;18.42;;;4.30;99.90;;;;;;5015720;28;20183;-86
2022/12/09 06:25:08;;;;;;;30.65;17.88;;;4.20;99.90;;;;;;5000153;28;20058;-86
2022/12/09 06:27:34;;;;;;;33.40;16.92;;;4.20;99.90;;;;;;5015883;28;20022;-86
2022/12/09 06:30:07;;;;;;;29.73;16.45;;;4.20;99.90;;;;;;5015687;28;20032;-86
2022/12/09 06:32:33;;;;;;;31.70;17.08;;;4.10;99.90;;;;;;4999865;28;20513;-86
2022/12/09 06:35:02;;;;;;;31.92;18.15;;;4.10;99.90;;;;;;5016047;28;20116;-86
2022/12/09 06:37:36;;;;;;;31.75;17.98;;;4.10;99.90;;;;;;5016045;28;20024;-86
2022/12/09 06:40:05;;;;;;;33.47;17.88;;;4.00;99.90;;;;;;5017081;28;20038;-86
2022/12/09 06:42:33;;;;;;;34.97;18.25;;;4.00;99.90;;;;;;5016751;28;20028;-86
2022/12/09 06:44:59;;;;;;;29.63;17.90;;;4.00;99.90;;;;;;5016422;28;20018;-86
2022/12/09 06:47:32;;;;;;;32.45;18.40;;;4.00;99.90;;;;;;5015646;28;20394;-86
2022/12/09 06:50:01;;;;;;;37.00;20.05;;;3.90;99.90;;;;;;4999878;28;20046;-86
2022/12/09 06:52:27;;;;;;;41.58;21.73;;;3.90;99.90;;;;;;5016958;28;20113;-86
2022/12/09 06:54:58;;;;;;;38.05;21.33;;;3.80;99.90;;;;;;5016685;28;20021;-86
2022/12/09 06:57:37;;;;;;;39.63;20.75;;;3.80;99.90;;;;;;5018643;28;20036;-86
2022/12/09 07:00:31;;;;;;;;;;;;;;;;;;;;;
2022/12/09 07:03:15;;;;;;;34.45;19.23;;;3.70;99.90;;;;;;5036375;28;20501;-86
2022/12/09 07:05:51;;;;;;;33.08;18.38;;;3.70;99.90;;;;;;5020489;28;20045;-86
2022/12/09 07:08:24;;;;;;;36.53;18.92;;;3.70;99.90;;;;;;5016524;28;20025;-86
2022/12/09 07:11:10;;;;;;;33.13;18.70;;;3.60;99.90;;;;;;4998870;28;20120;-86
2022/12/09 07:13:39;;;;;;;35.40;19.60;;;3.60;99.90;;;;;;5014684;28;20442;-86
2022/12/09 07:16:14;;;;;;;35.53;19.17;;;3.50;99.90;;;;;;5014995;28;20480;-87
2022/12/09 07:18:42;;;;;;;32.05;19.15;;;3.50;99.90;;;;;;5014840;28;20084;-86
2022/12/09 07:21:19;;;;;;;38.85;19.50;;;3.50;99.90;;;;;;5014980;28;20072;-87
2022/12/09 07:23:51;;;;;;;33.17;18.95;;;3.40;99.90;;;;;;5015056;28;20021;-87
2022/12/09 07:26:19;;;;;;;35.08;18.60;;;3.40;99.90;;;;;;5014702;28;20018;-87
2022/12/09 07:28:48;;;;;;;38.78;20.25;;;3.40;99.90;;;;;;5014190;28;20029;-87
2022/12/09 07:31:29;;;;;;;38.05;20.80;;;3.30;99.90;;;;;;5014521;28;20115;-87
2022/12/09 07:34:04;;;;;;;37.47;19.75;;;3.30;99.90;;;;;;5014070;28;20128;-86
2022/12/09 07:36:34;;;;;;;35.88;19.17;;;3.30;99.90;;;;;;5015836;28;20022;-87
2022/12/09 07:39:20;;;;;;;34.90;18.92;;;3.30;99.90;;;;;;5014888;28;20022;-94
2022/12/09 07:42:30;;;;;;;35.45;18.75;;;3.20;99.90;;;;;;4997020;28;20105;-87
2022/12/09 07:44:56;;;;;;;37.88;20.35;;;3.20;99.90;;;;;;4998703;28;20037;-85
2022/12/09 07:47:21;;;;;;;36.78;20.80;;;3.20;99.90;;;;;;5014608;28;20033;-84
2022/12/09 07:49:49;;;;;;;39.28;20.17;;;3.20;99.90;;;;;;4996747;28;20485;-84
2022/12/09 07:52:15;;;;;;;37.63;19.95;;;3.20;99.90;;;;;;4977640;28;20046;-86
2022/12/09 07:54:41;;;;;;;42.03;21.48;;;3.20;99.90;;;;;;4977889;28;20030;-84
2022/12/09 07:57:06;;;;;;;39.78;21.80;;;3.10;99.90;;;;;;4987348;28;20026;-84
2022/12/09 07:59:42;;;;;;;38.55;21.30;;;3.10;99.90;;;;;;4997045;28;20026;-84
2022/12/09 08:02:11;;;;;;;42.78;22.27;;;3.10;99.90;;;;;;4996485;28;20501;-85
2022/12/09 08:04:36;;;;;;;38.08;21.85;;;3.10;99.90;;;;;;4996433;28;20552;-84
2022/12/09 08:07:04;;;;;;;41.30;20.88;;;3.10;99.90;;;;;;4996300;28;20025;-85
2022/12/09 08:09:32;;;;;;;41.97;22.05;;;3.10;99.90;;;;;;4996659;28;20096;-84
2022/12/09 08:12:07;;;;;;;38.67;20.65;;;3.10;99.90;;;;;;4980094;28;20095;-85
2022/12/09 08:14:32;;;;;;;42.25;22.52;;;3.00;99.90;;;;;;5014181;28;20034;-84
2022/12/09 08:16:59;;;;;;;45.15;22.95;;;3.00;99.90;;;;;;5009840;28;20019;-84
2022/12/09 08:19:24;;;;;;;44.65;22.60;;;3.00;99.90;;;;;;4977305;28;20526;-84
2022/12/09 08:21:53;;;;;;;44.45;21.60;;;3.00;99.90;;;;;;4996001;28;20113;-85
2022/12/09 08:24:26;;;;;;;39.95;21.10;;;3.00;99.90;;;;;;4996369;28;20038;-84
2022/12/09 08:26:54;;;;;;;43.05;21.85;;;3.00;99.90;;;;;;4980531;28;20152;-83
2022/12/09 08:29:22;;;;;;;45.10;22.73;;;3.00;99.90;;;;;;4980208;28;20107;-84
2022/12/09 08:31:50;;;;;;;48.67;23.65;;;3.00;99.90;;;;;;4996607;28;20079;-84
2022/12/09 08:34:18;;;;;;;46.53;22.92;;;3.10;99.90;;;;;;4978866;28;20041;-84
2022/12/09 08:36:44;;;;;;;52.33;25.85;;;3.10;99.90;;;;;;4996219;28;20474;-85
2022/12/09 08:39:12;;;;;;;47.72;24.40;;;3.10;99.90;;;;;;4996566;28;20176;-85
2022/12/09 08:41:41;;;;;;;50.60;24.83;;;3.10;99.90;;;;;;4996818;28;20033;-87
2022/12/09 08:44:14;;;;;;;47.97;25.42;;;3.10;99.90;;;;;;4996312;28;20024;-90
2022/12/09 08:46:44;;;;;;;50.92;24.45;;;3.20;99.90;;;;;;4995497;28;20033;-86
2022/12/09 08:49:17;;;;;;;59.40;24.97;;;3.20;99.90;;;;;;4996176;28;20462;-87
2022/12/09 08:51:46;;;;;;;58.40;26.20;;;3.20;99.90;;;;;;4979490;28;20308;-86
2022/12/09 08:54:20;;;;;;;52.88;25.60;;;3.20;99.90;;;;;;4993221;28;20213;-87
2022/12/09 08:57:08;;;;;;;55.25;25.90;;;3.20;99.90;;;;;;4979571;28;20032;-87
2022/12/09 08:59:39;;;;;;;50.53;24.48;;;3.20;99.90;;;;;;4996330;28;20028;-85
2022/12/09 09:02:04;;;;;;;54.67;24.23;;;3.20;99.90;;;;;;5008968;28;20027;-85
2022/12/09 09:04:39;;;;;;;52.53;23.63;;;3.20;99.90;;;;;;4996343;28;20038;-85
2022/12/09 09:07:08;;;;;;;53.03;26.27;;;3.20;99.90;;;;;;4995914;28;20497;-86
2022/12/09 09:09:34;;;;;;;52.90;23.60;;;3.20;99.90;;;;;;4996840;28;20033;-86
2022/12/09 09:12:07;;;;;;;50.70;23.67;;;3.20;99.90;;;;;;5010983;28;20117;-85
2022/12/09 09:14:33;;;;;;;53.17;24.67;;;3.20;99.90;;;;;;4998078;28;20081;-85
2022/12/09 09:16:59;;;;;;;50.28;24.52;;;3.30;99.90;;;;;;4996910;28;20034;-86
2022/12/09 09:19:25;;;;;;;52.08;24.42;;;3.30;99.90;;;;;;4998144;28;20023;-89
2022/12/09 09:22:15;;;;;;;49.65;24.83;;;3.30;99.90;;;;;;4996898;28;20022;-86
2022/12/09 09:24:43;;;;;;;51.72;25.27;;;3.30;99.90;;;;;;4995754;28;20054;-86
2022/12/09 09:27:11;;;;;;;43.55;21.55;;;3.30;99.90;;;;;;4996649;28;20378;-85
2022/12/09 09:29:40;;;;;;;47.67;23.52;;;3.40;99.90;;;;;;4997481;28;20018;-85
2022/12/09 09:32:11;;;;;;;40.28;20.02;;;3.40;99.90;;;;;;4981581;28;20042;-86
2022/12/09 09:34:44;;;;;;;38.08;19.38;;;3.40;99.90;;;;;;4984505;28;20019;-93
2022/12/09 09:37:34;;;;;;;41.47;20.20;;;3.40;99.90;;;;;;5002489;28;20045;-88
2022/12/09 09:40:03;;;;;;;35.25;18.67;;;3.40;99.90;;;;;;5003407;28;20034;-85
2022/12/09 09:42:36;;;;;;;34.08;17.25;;;3.40;99.90;;;;;;4980504;28;20121;-85
2022/12/09 09:45:06;;;;;;;34.88;17.10;;;3.40;99.90;;;;;;4996046;28;20102;-85
2022/12/09 09:48:13;;;;;;;37.20;18.13;;;3.40;99.90;;;;;;4996603;28;20049;-88
2022/12/09 09:51:43;;;;;;;;;;;;;;;;;;;;;
2022/12/09 09:54:13;;;;;;;34.10;17.35;;;3.40;99.90;;;;;;4956957;28;20039;-84
2022/12/09 09:56:45;;;;;;;33.95;17.13;;;3.30;99.90;;;;;;4992860;28;20038;-84
2022/12/09 09:59:30;;;;;;;34.22;16.92;;;3.30;99.90;;;;;;4993360;28;20058;-83
2022/12/09 10:02:10;;;;;;;32.03;17.63;;;3.30;99.90;;;;;;4997313;28;20081;-84
2022/12/09 10:05:27;;;;;;;35.70;17.90;;;3.40;99.90;;;;;;5002364;28;20463;-84
2022/12/09 10:08:08;;;;;;;35.22;17.13;;;3.40;99.90;;;;;;4952216;28;20057;-84
2022/12/09 10:10:52;;;;;;;36.55;17.08;;;3.40;99.90;;;;;;4989721;28;20114;-84
2022/12/09 10:13:42;;;;;;;34.38;17.75;;;3.40;99.90;;;;;;5008822;28;20031;-85
2022/12/09 10:16:21;;;;;;;32.90;16.42;;;3.50;99.90;;;;;;4994404;28;20463;-86
2022/12/09 10:19:10;;;;;;;38.45;19.27;;;3.50;99.90;;;;;;4995040;28;20065;-87
2022/12/09 10:21:44;;;;;;;32.42;16.10;;;3.50;99.90;;;;;;4990791;28;20022;-85
2022/12/09 10:24:24;;;;;;;42.58;17.98;;;3.50;99.90;;;;;;4991096;28;20049;-84
2022/12/09 10:27:25;;;;;;;33.38;17.67;;;3.60;99.90;;;;;;4993705;28;20070;-85
2022/12/09 10:30:01;;;;;;;35.25;17.17;;;3.50;99.90;;;;;;4992011;28;20045;-85
2022/12/09 10:32:32;;;;;;;38.25;18.60;;;3.60;99.90;;;;;;4995232;28;20033;-85
2022/12/09 10:34:59;;;;;;;35.92;19.20;;;3.60;99.90;;;;;;4989771;28;20022;-85
2022/12/09 10:37:31;;;;;;;35.30;18.73;;;3.60;99.90;;;;;;4979527;28;20041;-84
2022/12/09 10:40:06;;;;;;;33.78;17.10;;;3.60;99.90;;;;;;4996017;28;20026;-84
2022/12/09 10:45:43;;;;;;;34.90;18.00;;;3.70;99.90;;;;;;4996006;28;20033;-85
2022/12/09 10:48:36;;;;;;;32.78;16.85;;;3.70;99.90;;;;;;4990023;28;20554;-91
2022/12/09 10:51:05;;;;;;;34.13;17.15;;;3.70;99.90;;;;;;4990337;28;20487;-85
2022/12/09 10:53:33;;;;;;;37.10;18.88;;;3.70;99.90;;;;;;4999997;28;20041;-85
2022/12/09 10:56:01;;;;;;;34.67;17.40;;;3.70;99.90;;;;;;4979222;28;20030;-85
2022/12/09 10:58:29;;;;;;;33.13;16.92;;;3.70;99.90;;;;;;4991998;28;20022;-85
2022/12/09 11:01:04;;;;;;;33.20;17.52;;;3.70;99.90;;;;;;4988804;28;20023;-85
2022/12/09 11:03:46;;;;;;;35.50;17.83;;;3.70;99.90;;;;;;4995278;28;20037;-86
2022/12/09 11:06:26;;;;;;;31.83;18.10;;;3.80;99.90;;;;;;5012360;28;20450;-84
2022/12/09 11:09:00;;;;;;;33.97;18.08;;;3.80;99.90;;;;;;4996900;28;20072;-85
2022/12/09 11:11:48;;;;;;;28.83;15.90;;;3.80;99.90;;;;;;4978118;28;20442;-84
2022/12/09 11:14:22;;;;;;;31.00;16.80;;;3.80;99.90;;;;;;4996986;28;20036;-84
2022/12/09 11:16:54;;;;;;;32.30;17.27;;;3.80;99.90;;;;;;4996684;28;20076;-87
2022/12/09 11:19:37;;;;;;;35.10;17.05;;;3.90;99.90;;;;;;4997058;28;20092;-85
2022/12/09 11:22:37;;;;;;;31.33;16.80;;;3.90;99.90;;;;;;4994592;28;20104;-85
2022/12/09 11:25:26;;;;;;;36.95;18.23;;;3.90;99.90;;;;;;4996365;28;20026;-85
2022/12/09 11:28:14;;;;;;;36.78;16.83;;;3.90;99.90;;;;;;4996209;28;20104;-86
2022/12/09 11:30:48;;;;;;;36.40;18.48;;;3.90;99.90;;;;;;4999898;28;20052;-84
2022/12/09 11:33:14;;;;;;;33.45;16.15;;;3.90;99.90;;;;;;4997167;28;20058;-85
2022/12/09 11:35:42;;;;;;;28.13;13.75;;;3.90;99.90;;;;;;5001680;28;20049;-84
2022/12/09 11:38:37;;;;;;;27.67;14.75;;;3.90;99.90;;;;;;5014800;28;20030;-87
2022/12/09 11:41:07;;;;;;;29.95;15.20;;;3.90;99.90;;;;;;5014049;28;20033;-85
2022/12/09 11:43:55;;;;;;;25.10;13.50;;;3.90;99.90;;;;;;5013666;28;20033;-85
2022/12/09 11:46:26;;;;;;;30.83;15.07;;;3.80;99.90;;;;;;4997303;28;20060;-85
2022/12/09 11:48:56;;;;;;;28.13;14.48;;;3.80;99.90;;;;;;4996817;28;20018;-84
2022/12/09 11:51:29;;;;;;;27.85;14.55;;;3.70;99.90;;;;;;5009699;28;20050;-85
2022/12/09 11:54:02;;;;;;;29.65;15.32;;;3.70;99.90;;;;;;4998615;28;20026;-85
2022/12/09 11:56:29;;;;;;;26.42;14.35;;;3.70;99.90;;;;;;4998593;28;20084;-86
2022/12/09 11:59:13;;;;;;;25.65;13.18;;;3.70;99.90;;;;;;4964570;28;20026;-84
2022/12/09 12:01:46;;;;;;;30.13;14.75;;;3.70;99.90;;;;;;5015407;28;20478;-85
2022/12/09 12:04:15;;;;;;;22.95;13.52;;;3.70;99.90;;;;;;4989535;28;20045;-92
2022/12/09 12:07:00;;;;;;;28.45;14.57;;;3.70;99.90;;;;;;4997992;28;20029;-86
2022/12/09 12:09:40;;;;;;;26.00;14.20;;;3.70;99.90;;;;;;5019937;28;20034;-88
2022/12/09 12:12:28;;;;;;;25.45;14.00;;;3.80;99.90;;;;;;5025098;28;20037;-86
2022/12/09 12:15:00;;;;;;;29.42;13.80;;;3.80;99.90;;;;;;5019185;28;20101;-85
2022/12/09 12:17:33;;;;;;;29.65;15.55;;;3.90;99.90;;;;;;5003901;28;20458;-86
2022/12/09 12:19:59;;;;;;;33.25;16.42;;;3.90;99.90;;;;;;4995778;28;20030;-88
2022/12/09 12:22:33;;;;;;;33.75;15.70;;;3.90;99.90;;;;;;4990570;28;20065;-85
2022/12/09 12:25:22;;;;;;;30.15;14.90;;;4.00;99.90;;;;;;5011601;28;20024;-85
2022/12/09 12:28:05;;;;;;;35.03;16.55;;;4.00;99.90;;;;;;4994991;28;20026;-85
2022/12/09 12:30:54;;;;;;;32.72;16.42;;;4.00;99.90;;;;;;5008991;28;20540;-84
2022/12/09 12:33:37;;;;;;;28.83;14.82;;;4.00;99.90;;;;;;5013656;28;20033;-85
2022/12/09 12:36:19;;;;;;;30.48;15.10;;;4.00;99.90;;;;;;5012742;28;20116;-85
2022/12/09 12:38:44;;;;;;;;;;;4.00;99.90;;;;;;5012234;28;20036;-85
2022/12/09 12:41:38;;;;;;;26.63;13.38;;;4.10;99.90;;;;;;5011646;28;20288;-86
2022/12/09 12:47:11;;;;;;;;;;;4.00;99.90;;;;;;5013743;28;20037;-84
2022/12/09 12:49:55;;;;;;;27.58;15.43;;;4.00;99.90;;;;;;5012744;28;20371;-85
2022/12/09 12:52:29;;;;;;;29.77;15.23;;;4.00;99.90;;;;;;5003914;28;20180;-85
2022/12/09 12:55:07;;;;;;;30.52;15.30;;;4.00;99.90;;;;;;4995509;28;20030;-89
2022/12/09 12:57:45;;;;;;;26.17;14.23;;;4.00;99.90;;;;;;5010162;28;20040;-84
2022/12/09 13:00:17;;;;;;;27.00;13.68;;;4.10;99.90;;;;;;5010713;28;20479;-86
2022/12/09 13:02:46;;;;;;;26.00;13.68;;;4.00;99.90;;;;;;5008523;28;20154;-86
2022/12/09 13:05:35;;;;;;;25.13;13.70;;;4.00;99.90;;;;;;5004208;28;20050;-85
2022/12/09 13:08:07;;;;;;;25.10;13.82;;;4.00;99.90;;;;;;4989796;28;20042;-85
2022/12/09 13:10:50;;;;;;;28.67;13.85;;;4.00;99.90;;;;;;4992994;28;20034;-85
2022/12/09 13:13:19;;;;;;;24.63;13.25;;;4.00;99.90;;;;;;4990455;28;20035;-84
2022/12/09 13:15:50;;;;;;;24.23;12.40;;;4.00;99.90;;;;;;5006636;28;20034;-84
2022/12/09 13:18:25;;;;;;;22.20;12.73;;;4.00;99.90;;;;;;4993564;28;20038;-85
2022/12/09 13:21:00;;;;;;;25.05;14.00;;;4.00;99.90;;;;;;4993040;28;20030;-85
2022/12/09 13:23:32;;;;;;;23.25;12.75;;;3.90;99.90;;;;;;4989382;28;20014;-86
2022/12/09 13:26:18;;;;;;;20.10;11.50;;;3.90;99.90;;;;;;5001681;28;20023;-85
2022/12/09 13:28:57;;;;;;;22.85;12.30;;;3.90;99.90;;;;;;4992578;28;20109;-84
2022/12/09 13:31:31;;;;;;;20.13;12.43;;;3.90;99.90;;;;;;5004623;28;20121;-85
2022/12/09 13:34:12;;;;;;;20.35;10.70;;;3.90;99.90;;;;;;4992420;28;20054;-85
2022/12/09 13:36:45;;;;;;;21.65;11.15;;;3.90;99.90;;;;;;4992472;28;20034;-85